Time;durP1;ratioP1;P1;durP2;ratioP2;P2;SDS_P1;SDS_P2;PMS_P1;PMS_P2;Temp;Humidity;BMP_temperature;BMP_pressure;BME280_temperature;BME280_humidity;BME280_pressure;Samples;Min_cycle;Max_cycle;Signal;HPM_P1;HPM_P2
2022/07/23 00:03:55;;;;;;;13.57;12.27;;;28.40;48.70;;;;;;4887441;56;21099;-34
2022/07/23 00:08:56;;;;;;;13.27;11.98;;;28.40;48.80;;;;;;4661321;56;21012;-33
2022/07/23 00:13:57;;;;;;;13.55;12.18;;;28.40;48.80;;;;;;4908959;56;21017;-33
2022/07/23 00:19:01;;;;;;;12.95;11.65;;;28.50;48.90;;;;;;4654642;56;21606;-28
2022/07/23 00:24:02;;;;;;;13.60;12.20;;;28.50;49.00;;;;;;4789453;56;21503;-32
2022/07/23 00:29:02;;;;;;;13.82;12.43;;;28.40;48.90;;;;;;4757594;56;21096;-33
2022/07/23 00:34:03;;;;;;;13.18;11.77;;;28.40;48.90;;;;;;4663350;56;21013;-32
2022/07/23 00:39:04;;;;;;;13.20;11.90;;;28.40;48.90;;;;;;4972566;56;21016;-33
2022/07/23 00:44:25;;;;;;;12.57;11.27;;;28.40;48.90;;;;;;4721115;56;21092;-31
2022/07/23 00:49:29;;;;;;;11.82;10.70;;;28.40;48.90;;;;;;4926835;56;21000;-32
2022/07/23 00:54:30;;;;;;;12.85;11.55;;;28.40;49.00;;;;;;4739273;56;21578;-30
2022/07/23 00:59:31;;;;;;;12.52;11.32;;;28.40;49.00;;;;;;4614678;56;21028;-34
2022/07/23 01:04:32;;;;;;;13.10;11.80;;;28.50;49.10;;;;;;4696534;56;21028;-29
2022/07/23 01:09:33;;;;;;;12.18;10.98;;;28.50;49.10;;;;;;4893800;56;21562;-30
2022/07/23 01:14:34;;;;;;;12.20;11.00;;;28.40;49.10;;;;;;5073275;56;21024;-31
2022/07/23 01:19:35;;;;;;;12.45;11.15;;;28.40;49.70;;;;;;4829354;56;21112;-32
2022/07/23 01:24:36;;;;;;;12.88;11.65;;;28.40;49.80;;;;;;4828202;56;21510;-31
2022/07/23 01:29:36;;;;;;;12.23;11.02;;;28.40;49.20;;;;;;4735917;56;21060;-34
2022/07/23 01:34:37;;;;;;;12.02;10.75;;;28.40;49.10;;;;;;4643428;56;21020;-31
2022/07/23 01:39:39;;;;;;;12.02;10.75;;;28.40;49.10;;;;;;4839974;56;21024;-28
2022/07/23 01:44:40;;;;;;;12.50;11.07;;;28.40;49.10;;;;;;4615341;60;21570;-31
2022/07/23 01:49:40;;;;;;;11.48;10.35;;;28.40;49.30;;;;;;5073179;56;21064;-36
2022/07/23 01:54:41;;;;;;;12.00;10.88;;;28.40;49.30;;;;;;4703736;56;21016;-33
2022/07/23 01:59:42;;;;;;;11.88;10.68;;;28.40;49.30;;;;;;4805000;56;21090;-32
2022/07/23 02:04:43;;;;;;;12.07;10.90;;;28.40;49.30;;;;;;4636717;56;21036;-31
2022/07/23 02:09:44;;;;;;;11.57;10.48;;;28.40;49.40;;;;;;4615487;56;21029;-34
2022/07/23 02:14:45;;;;;;;11.77;10.57;;;28.40;49.30;;;;;;4662272;56;21013;-33
2022/07/23 02:19:45;;;;;;;11.32;10.20;;;28.40;50.00;;;;;;4668742;56;21061;-35
2022/07/23 02:24:46;;;;;;;11.38;10.32;;;28.40;49.40;;;;;;4659850;56;21017;-27
2022/07/23 02:29:47;;;;;;;11.48;10.38;;;28.40;49.30;;;;;;4643446;56;21064;-29
2022/07/23 02:34:48;;;;;;;10.88;9.88;;;28.40;49.40;;;;;;4661594;56;21031;-32
2022/07/23 02:39:49;;;;;;;10.73;9.73;;;28.40;49.40;;;;;;4865576;56;21020;-30
2022/07/23 02:44:51;;;;;;;10.95;9.85;;;28.40;49.40;;;;;;4776360;56;21044;-29
2022/07/23 02:49:52;;;;;;;10.95;9.82;;;28.40;49.40;;;;;;4634111;56;21084;-30
2022/07/23 02:54:52;;;;;;;10.57;9.57;;;28.40;49.30;;;;;;4647610;56;21559;-30
2022/07/23 02:59:53;;;;;;;10.38;9.43;;;28.40;49.30;;;;;;4720032;56;21112;-32
2022/07/23 03:04:54;;;;;;;10.52;9.52;;;28.40;49.20;;;;;;4662860;56;21085;-30
2022/07/23 03:09:55;;;;;;;10.25;9.15;;;28.40;49.20;;;;;;5044155;56;21527;-33
2022/07/23 03:14:55;;;;;;;10.68;9.68;;;28.40;49.10;;;;;;4615193;60;21109;-28
2022/07/23 03:19:56;;;;;;;10.20;9.13;;;28.40;49.10;;;;;;4800372;56;21048;-28
2022/07/23 03:24:57;;;;;;;9.65;8.75;;;28.40;49.10;;;;;;4796737;56;21016;-28
2022/07/23 03:29:59;;;;;;;10.02;9.02;;;28.40;49.00;;;;;;4919307;56;21056;-32
2022/07/23 03:35:00;;;;;;;10.30;9.20;;;28.40;49.00;;;;;;4647966;56;21021;-28
2022/07/23 03:40:01;;;;;;;9.57;8.68;;;28.40;48.90;;;;;;4866951;56;21025;-29
2022/07/23 03:45:02;;;;;;;9.88;8.88;;;28.40;48.90;;;;;;4867189;56;21514;-32
2022/07/23 03:50:03;;;;;;;10.48;9.48;;;28.40;48.90;;;;;;4680959;56;21602;-32
2022/07/23 03:55:05;;;;;;;9.90;8.88;;;28.40;48.80;;;;;;4658874;56;21144;-29
2022/07/23 04:00:10;;;;;;;9.75;8.82;;;28.40;48.80;;;;;;5073647;56;20989;-28
2022/07/23 04:05:11;;;;;;;9.18;8.27;;;28.40;48.80;;;;;;4689648;56;21000;-35
2022/07/23 04:10:12;;;;;;;8.98;8.07;;;28.40;48.80;;;;;;4888286;56;21020;-29
2022/07/23 04:15:13;;;;;;;8.90;8.00;;;28.30;48.70;;;;;;4616371;56;21037;-30
2022/07/23 04:20:14;;;;;;;8.93;7.95;;;28.40;48.90;;;;;;4837362;56;21049;-31
2022/07/23 04:25:16;;;;;;;9.35;8.20;;;28.30;48.80;;;;;;4732053;56;21546;-30
2022/07/23 04:30:17;;;;;;;9.82;8.68;;;28.30;48.70;;;;;;4949154;56;21554;-29
2022/07/23 04:35:18;;;;;;;9.18;8.27;;;28.30;48.60;;;;;;4845344;56;21055;-29
2022/07/23 04:40:19;;;;;;;9.25;8.25;;;28.30;48.80;;;;;;4824502;56;21020;-27
2022/07/23 04:45:19;;;;;;;8.95;8.05;;;28.30;49.10;;;;;;4731567;56;21057;-28
2022/07/23 04:50:21;;;;;;;8.23;7.45;;;28.30;48.70;;;;;;4837073;56;21020;-32
2022/07/23 04:55:22;;;;;;;8.50;7.70;;;28.30;48.60;;;;;;4648364;56;21531;-29
2022/07/23 05:00:23;;;;;;;8.52;7.60;;;28.30;48.60;;;;;;4774231;56;21009;-34
2022/07/23 05:05:24;;;;;;;9.07;7.75;;;28.30;48.50;;;;;;4720825;56;21065;-35
2022/07/23 05:10:24;;;;;;;9.05;7.72;;;28.30;48.50;;;;;;4680338;56;21493;-33
2022/07/23 05:15:25;;;;;;;8.95;8.05;;;28.30;48.60;;;;;;5073475;56;21032;-33
2022/07/23 05:20:26;;;;;;;8.10;7.30;;;28.30;48.60;;;;;;4752467;56;21053;-29
2022/07/23 05:25:27;;;;;;;8.15;7.35;;;28.30;48.50;;;;;;4701675;56;21020;-32
2022/07/23 05:30:28;;;;;;;8.95;7.55;;;28.30;48.50;;;;;;4733721;56;21055;-31
2022/07/23 05:35:29;;;;;;;8.27;7.43;;;28.30;48.50;;;;;;4869435;56;21108;-29
2022/07/23 05:40:30;;;;;;;8.32;7.40;;;28.30;48.50;;;;;;4684797;56;21076;-30
2022/07/23 05:45:31;;;;;;;8.13;7.32;;;28.20;48.40;;;;;;4785119;56;21027;-33
2022/07/23 05:50:32;;;;;;;8.48;7.32;;;28.30;49.10;;;;;;4697255;56;21505;-30
2022/07/23 05:55:33;;;;;;;9.10;8.07;;;28.20;48.40;;;;;;5015359;56;21048;-27
2022/07/23 06:00:34;;;;;;;9.35;8.45;;;28.30;48.50;;;;;;4816539;56;21004;-35
2022/07/23 06:05:35;;;;;;;10.32;8.05;;;28.30;48.40;;;;;;4677426;56;21036;-31
2022/07/23 06:10:36;;;;;;;9.32;8.43;;;28.30;48.40;;;;;;4770827;56;21076;-31
2022/07/23 06:15:37;;;;;;;10.80;8.18;;;28.30;48.50;;;;;;4719606;56;21044;-29
2022/07/23 06:20:37;;;;;;;9.25;7.90;;;28.20;48.40;;;;;;4765008;56;21600;-31
2022/07/23 06:25:38;;;;;;;8.68;7.85;;;28.30;48.50;;;;;;4656310;56;21028;-28
2022/07/23 06:30:39;;;;;;;10.35;7.87;;;28.30;48.40;;;;;;4758992;56;21008;-35
2022/07/23 06:35:40;;;;;;;9.02;8.15;;;28.30;48.40;;;;;;5072783;56;21032;-32
2022/07/23 06:40:41;;;;;;;8.70;7.80;;;28.30;48.40;;;;;;4669882;56;21586;-30
2022/07/23 06:45:42;;;;;;;10.60;8.27;;;28.30;48.40;;;;;;4772969;56;21036;-32
2022/07/23 06:50:43;;;;;;;9.43;7.95;;;28.30;48.40;;;;;;4623426;56;21021;-30
2022/07/23 06:55:44;;;;;;;9.75;8.40;;;28.30;48.40;;;;;;4614878;60;21032;-30
2022/07/23 07:00:44;;;;;;;13.50;8.40;;;28.30;48.40;;;;;;4983040;56;21036;-30
2022/07/23 07:05:45;;;;;;;10.38;8.50;;;28.30;48.40;;;;;;4614780;60;21513;-28
2022/07/23 07:10:46;;;;;;;10.48;8.30;;;28.30;48.40;;;;;;4617082;56;21075;-31
2022/07/23 07:15:47;;;;;;;9.07;8.15;;;28.30;48.30;;;;;;4775482;56;21091;-32
2022/07/23 07:20:49;;;;;;;9.13;8.23;;;28.30;48.30;;;;;;4640447;56;21534;-31
2022/07/23 07:25:50;;;;;;;9.35;8.38;;;28.30;48.30;;;;;;4811138;56;21502;-30
2022/07/23 07:30:51;;;;;;;9.77;7.70;;;28.30;48.30;;;;;;4614673;60;21005;-30
2022/07/23 07:35:52;;;;;;;8.40;7.60;;;28.30;48.30;;;;;;4666259;56;21001;-28
2022/07/23 07:40:52;;;;;;;9.18;8.27;;;28.30;48.40;;;;;;4673405;56;21023;-31
2022/07/23 07:45:53;;;;;;;9.88;8.10;;;28.30;48.40;;;;;;4881392;56;21490;-29
2022/07/23 07:50:54;;;;;;;8.98;8.18;;;28.30;48.40;;;;;;4614560;60;21542;-29
2022/07/23 07:55:55;;;;;;;9.18;7.80;;;28.30;48.40;;;;;;4987981;56;21080;-30
2022/07/23 08:00:56;;;;;;;9.07;8.18;;;28.30;48.10;;;;;;4660597;56;21016;-30
2022/07/23 08:05:56;;;;;;;9.05;8.15;;;28.30;48.40;;;;;;4634140;56;21012;-29
2022/07/23 08:10:57;;;;;;;9.38;7.93;;;28.30;48.40;;;;;;4660305;56;21088;-29
2022/07/23 08:15:58;;;;;;;10.65;7.95;;;28.30;48.40;;;;;;4615939;56;21076;-31
2022/07/23 08:20:59;;;;;;;8.82;7.95;;;28.30;48.40;;;;;;4614608;60;21132;-31
2022/07/23 08:26:00;;;;;;;8.70;7.90;;;28.40;48.50;;;;;;4685197;56;21057;-32
2022/07/23 08:31:01;;;;;;;9.20;7.75;;;28.30;48.40;;;;;;4682546;56;21502;-30
2022/07/23 08:36:03;;;;;;;8.40;7.60;;;28.40;48.40;;;;;;4848902;56;21080;-33
2022/07/23 08:41:07;;;;;;;9.23;8.32;;;28.40;48.40;;;;;;4681045;56;21016;-29
2022/07/23 08:46:09;;;;;;;9.32;8.38;;;28.30;48.40;;;;;;4855355;56;21036;-31
2022/07/23 08:51:10;;;;;;;8.70;7.80;;;28.40;48.40;;;;;;4654473;56;22090;-30
2022/07/23 08:56:11;;;;;;;10.25;8.93;;;28.30;48.40;;;;;;4725172;56;21503;-30
2022/07/23 09:01:12;;;;;;;9.93;8.93;;;28.40;48.40;;;;;;4746387;56;21571;-31
2022/07/23 09:06:13;;;;;;;9.00;8.10;;;28.40;48.50;;;;;;4649987;56;21028;-31
2022/07/23 09:11:16;;;;;;;10.02;9.02;;;28.40;48.40;;;;;;4615225;60;21020;-29
2022/07/23 09:16:39;;;;;;;9.82;8.90;;;28.40;48.40;;;;;;4614635;60;21514;-29
2022/07/23 09:21:40;;;;;;;10.15;9.07;;;28.40;48.30;;;;;;4852005;56;21147;-32
2022/07/23 09:26:46;;;;;;;10.23;9.13;;;28.40;48.30;;;;;;4615415;60;21543;-34
2022/07/23 09:31:55;;;;;;;11.25;10.05;;;28.40;48.30;;;;;;4703650;56;21994;-31
2022/07/23 09:37:08;;;;;;;10.45;9.45;;;28.40;48.20;;;;;;4659519;56;21064;-31
2022/07/23 09:42:25;;;;;;;10.50;9.48;;;28.40;48.20;;;;;;5038033;56;21017;-31
2022/07/23 09:47:30;;;;;;;10.27;9.18;;;28.40;48.30;;;;;;4644065;56;21024;-30
2022/07/23 09:52:34;;;;;;;11.77;10.55;;;28.40;48.20;;;;;;4931900;56;21016;-30
2022/07/23 09:57:35;;;;;;;10.57;9.57;;;28.40;48.20;;;;;;4829595;56;21048;-29
2022/07/23 10:02:37;;;;;;;10.15;9.10;;;28.40;48.20;;;;;;4724323;56;21036;-29
2022/07/23 10:07:40;;;;;;;12.63;10.10;;;28.40;48.10;;;;;;4657522;56;21036;-32
2022/07/23 10:21:25;;;;;;;11.32;10.02;;;28.50;48.10;;;;;;4647061;56;21080;-31
2022/07/23 10:26:45;;;;;;;11.18;10.07;;;28.50;48.10;;;;;;4614914;60;21491;-32
2022/07/23 10:32:08;;;;;;;11.12;10.02;;;28.50;48.10;;;;;;4736393;56;21004;-30
2022/07/23 10:37:23;;;;;;;11.35;10.23;;;28.50;48.10;;;;;;4899223;56;21057;-29
2022/07/23 10:42:34;;;;;;;10.70;9.60;;;28.50;48.10;;;;;;4724076;56;21485;-31
2022/07/23 10:47:44;;;;;;;11.23;10.02;;;28.50;48.00;;;;;;4614972;60;21132;-34
2022/07/23 10:53:21;;;;;;;11.45;10.32;;;28.50;48.00;;;;;;4814955;56;21048;-32
2022/07/23 10:58:46;;;;;;;11.90;10.65;;;28.50;48.00;;;;;;4727235;56;21411;-34
2022/07/23 11:03:58;;;;;;;10.75;9.70;;;28.50;48.00;;;;;;4804261;56;21015;-28
2022/07/23 11:09:28;;;;;;;12.00;10.85;;;28.50;47.90;;;;;;4620979;56;21558;-29
2022/07/23 11:15:14;;;;;;;11.27;10.18;;;28.50;47.90;;;;;;4631550;56;21044;-29
2022/07/23 11:20:21;;;;;;;10.70;9.60;;;28.60;47.90;;;;;;4692008;56;21595;-31
2022/07/23 11:25:33;;;;;;;11.68;10.57;;;28.50;47.90;;;;;;4636465;56;20984;-30
2022/07/23 11:30:43;;;;;;;11.88;10.45;;;28.50;47.80;;;;;;4785101;56;21020;-29
2022/07/23 11:36:00;;;;;;;11.95;10.07;;;28.60;47.90;;;;;;4615403;60;21014;-31
2022/07/23 11:41:01;;;;;;;11.70;10.35;;;28.50;47.70;;;;;;4881463;56;21530;-33
2022/07/23 11:46:02;;;;;;;11.35;10.18;;;28.60;47.90;;;;;;4865176;56;21025;-29
2022/07/23 11:51:03;;;;;;;12.35;11.05;;;28.60;47.80;;;;;;4793078;56;21020;-29
2022/07/23 11:56:09;;;;;;;11.50;10.23;;;28.60;47.70;;;;;;4663985;56;21068;-29
2022/07/23 12:01:10;;;;;;;11.80;10.68;;;28.60;47.70;;;;;;4701949;56;21052;-30
2022/07/23 12:06:11;;;;;;;11.52;10.38;;;28.60;47.70;;;;;;4615149;60;21005;-30
2022/07/23 12:11:12;;;;;;;12.05;10.75;;;28.60;47.70;;;;;;4727324;56;21543;-30
2022/07/23 12:16:13;;;;;;;12.27;11.07;;;28.60;48.20;;;;;;4615236;56;21499;-32
2022/07/23 12:21:15;;;;;;;12.45;11.15;;;28.60;47.60;;;;;;4754001;56;21120;-30
2022/07/23 12:26:15;;;;;;;12.43;11.23;;;28.60;47.60;;;;;;4798253;56;22158;-30
2022/07/23 12:31:26;;;;;;;12.50;11.20;;;28.60;47.60;;;;;;4615322;60;21045;-30
2022/07/23 12:36:39;;;;;;;12.25;11.00;;;28.60;47.60;;;;;;4782747;56;21096;-30
2022/07/23 12:41:52;;;;;;;11.32;10.25;;;28.60;47.50;;;;;;4719855;56;21518;-31
2022/07/23 12:46:56;;;;;;;12.52;11.23;;;28.60;47.50;;;;;;4616161;56;21495;-29
2022/07/23 12:51:57;;;;;;;12.95;11.63;;;28.60;47.40;;;;;;4650146;56;21024;-31
2022/07/23 12:56:58;;;;;;;13.00;11.70;;;28.60;47.40;;;;;;4870459;56;21535;-32
2022/07/23 13:01:59;;;;;;;12.63;11.40;;;28.70;47.40;;;;;;4679409;56;20989;-32
2022/07/23 13:07:01;;;;;;;12.55;11.25;;;28.70;46.80;;;;;;4615340;60;21451;-29
2022/07/23 13:12:02;;;;;;;13.55;12.15;;;28.70;47.60;;;;;;4844013;56;21040;-31
2022/07/23 13:17:03;;;;;;;13.60;11.80;;;28.70;47.30;;;;;;4881725;56;21009;-32
2022/07/23 13:22:03;;;;;;;14.10;11.45;;;28.70;47.30;;;;;;4907432;56;21052;-35
2022/07/23 13:27:06;;;;;;;13.80;12.40;;;28.70;47.20;;;;;;4692236;56;21169;-29
2022/07/23 13:32:07;;;;;;;13.77;12.35;;;28.70;47.20;;;;;;4735059;56;21557;-28
2022/07/23 13:37:08;;;;;;;13.50;12.18;;;28.70;47.20;;;;;;4778938;56;21016;-30
2022/07/23 13:42:09;;;;;;;14.70;13.20;;;28.70;47.00;;;;;;4740358;56;21562;-29
2022/07/23 13:47:10;;;;;;;13.40;12.10;;;28.70;47.00;;;;;;4683075;56;21081;-29
2022/07/23 13:52:11;;;;;;;14.15;12.75;;;28.70;47.60;;;;;;4637817;56;21090;-30
2022/07/23 13:57:12;;;;;;;13.85;12.20;;;28.70;46.90;;;;;;4925846;56;21083;-31
2022/07/23 14:02:17;;;;;;;15.15;13.60;;;28.80;47.00;;;;;;4726468;56;21092;-29
2022/07/23 14:07:18;;;;;;;14.32;12.82;;;28.80;47.00;;;;;;4907521;56;21626;-29
2022/07/23 14:12:19;;;;;;;13.73;12.43;;;28.70;46.90;;;;;;4615237;60;21028;-30
2022/07/23 14:17:20;;;;;;;13.40;12.00;;;28.80;47.00;;;;;;4959635;56;21032;-31
2022/07/23 14:22:21;;;;;;;15.38;13.77;;;28.80;46.90;;;;;;4614302;60;21108;-30
2022/07/23 14:27:21;;;;;;;14.63;13.07;;;28.80;46.90;;;;;;4706914;56;21016;-35
2022/07/23 14:32:22;;;;;;;15.10;13.60;;;28.80;47.40;;;;;;4663001;56;21084;-30
2022/07/23 14:37:24;;;;;;;13.88;12.27;;;28.80;46.80;;;;;;4740067;56;21032;-32
2022/07/23 14:42:26;;;;;;;14.30;12.90;;;28.80;46.70;;;;;;4696941;56;21554;-27
2022/07/23 14:47:27;;;;;;;14.87;13.43;;;28.80;46.70;;;;;;4673988;56;21514;-30
2022/07/23 14:52:27;;;;;;;15.10;13.60;;;28.80;46.60;;;;;;4772962;56;21072;-31
2022/07/23 14:57:29;;;;;;;14.68;13.18;;;28.80;46.70;;;;;;4644756;56;21036;-30
2022/07/23 15:02:30;;;;;;;15.02;13.30;;;28.80;46.60;;;;;;4890813;56;21452;-30
2022/07/23 15:07:31;;;;;;;14.77;13.27;;;28.80;46.70;;;;;;4680213;56;21012;-30
2022/07/23 15:12:32;;;;;;;15.77;14.18;;;28.80;46.50;;;;;;4651635;56;21510;-30
2022/07/23 15:17:33;;;;;;;14.27;12.88;;;28.80;46.50;;;;;;4710580;56;21016;-30
2022/07/23 15:22:34;;;;;;;14.40;12.93;;;28.90;46.60;;;;;;4692263;56;21097;-30
2022/07/23 15:27:35;;;;;;;15.35;13.85;;;28.90;46.60;;;;;;4792356;56;21024;-30
2022/07/23 15:32:36;;;;;;;16.05;14.48;;;28.90;46.60;;;;;;4615276;60;21577;-32
2022/07/23 15:37:37;;;;;;;16.10;14.50;;;28.90;46.60;;;;;;4845413;56;21088;-29
2022/07/23 15:42:37;;;;;;;14.82;13.35;;;28.90;46.50;;;;;;4687933;56;21108;-30
2022/07/23 15:47:40;;;;;;;15.25;13.75;;;28.90;46.60;;;;;;4646693;56;21487;-29
2022/07/23 15:52:41;;;;;;;14.15;12.65;;;28.90;46.70;;;;;;4639317;56;21606;-29
2022/07/23 15:57:42;;;;;;;14.23;12.73;;;28.90;46.60;;;;;;4711670;56;21024;-29
2022/07/23 16:02:43;;;;;;;16.12;13.90;;;28.90;46.50;;;;;;4615569;60;21511;-30
2022/07/23 16:07:44;;;;;;;14.90;13.50;;;28.90;46.60;;;;;;4725715;56;21156;-29
2022/07/23 16:12:45;;;;;;;14.40;12.93;;;28.90;46.70;;;;;;4774269;56;21487;-32
2022/07/23 16:17:46;;;;;;;14.63;13.23;;;28.90;46.70;;;;;;5073277;56;21120;-32
2022/07/23 16:22:47;;;;;;;15.57;13.95;;;28.90;46.60;;;;;;4646564;56;21044;-33
2022/07/23 16:27:48;;;;;;;14.35;12.93;;;28.90;46.60;;;;;;4749222;56;21061;-28
2022/07/23 16:32:49;;;;;;;15.63;13.85;;;28.90;46.60;;;;;;4615412;60;21602;-30
2022/07/23 16:37:51;;;;;;;14.60;13.15;;;28.90;46.60;;;;;;4789890;56;21116;-29
2022/07/23 16:42:52;;;;;;;14.60;13.10;;;28.90;46.60;;;;;;4615761;60;21011;-30
2022/07/23 16:47:52;;;;;;;14.18;12.75;;;28.90;46.60;;;;;;4970365;56;21016;-30
2022/07/23 16:52:53;;;;;;;13.50;12.10;;;28.90;46.60;;;;;;4697856;56;21471;-28
2022/07/23 16:57:54;;;;;;;13.80;12.30;;;28.90;46.70;;;;;;4614863;60;21084;-29
2022/07/23 17:02:55;;;;;;;13.70;12.40;;;28.90;46.60;;;;;;4768284;56;21503;-31
2022/07/23 17:07:56;;;;;;;14.45;13.02;;;28.90;46.50;;;;;;4615390;60;21529;-31
2022/07/23 17:12:59;;;;;;;14.07;12.68;;;28.90;46.60;;;;;;4615347;57;21490;-30
2022/07/23 17:18:01;;;;;;;14.40;13.07;;;28.90;46.60;;;;;;4641976;56;21598;-31
2022/07/23 17:23:01;;;;;;;13.62;12.23;;;29.00;46.60;;;;;;4808710;56;21081;-29
2022/07/23 17:28:03;;;;;;;14.20;12.82;;;29.00;46.60;;;;;;4627255;56;21036;-28
2022/07/23 17:33:04;;;;;;;13.10;11.80;;;29.00;46.70;;;;;;4955068;56;21064;-31
2022/07/23 17:38:04;;;;;;;13.38;12.07;;;28.90;46.60;;;;;;4614905;56;21077;-30
2022/07/23 17:43:05;;;;;;;13.27;11.95;;;29.00;46.60;;;;;;4870741;56;21084;-28
2022/07/23 17:48:06;;;;;;;13.55;11.95;;;29.00;46.70;;;;;;4615351;60;21029;-32
2022/07/23 17:53:07;;;;;;;13.20;11.90;;;29.00;46.60;;;;;;4903780;56;21036;-32
2022/07/23 17:58:08;;;;;;;12.60;11.40;;;29.00;46.60;;;;;;4615129;56;21016;-29
2022/07/23 18:03:08;;;;;;;13.88;12.48;;;29.00;47.10;;;;;;4777147;56;21056;-31
2022/07/23 18:08:09;;;;;;;12.80;11.55;;;29.00;46.60;;;;;;4685183;56;21451;-31
2022/07/23 18:13:10;;;;;;;13.93;12.52;;;29.00;46.70;;;;;;4760587;56;21033;-30
2022/07/23 18:18:11;;;;;;;13.02;11.82;;;29.00;46.70;;;;;;4614465;56;21100;-32
2022/07/23 18:23:15;;;;;;;14.20;12.82;;;29.00;46.70;;;;;;4635491;56;21000;-32
2022/07/23 18:28:15;;;;;;;13.95;12.63;;;29.00;46.70;;;;;;4705868;56;21100;-31
2022/07/23 18:33:17;;;;;;;12.75;11.55;;;29.00;46.70;;;;;;4827182;56;21587;-31
2022/07/23 18:38:17;;;;;;;13.38;12.15;;;29.00;46.80;;;;;;4900824;56;21036;-30
2022/07/23 18:43:18;;;;;;;14.60;13.10;;;29.00;47.40;;;;;;4626248;56;21028;-31
2022/07/23 18:48:19;;;;;;;13.38;12.18;;;29.00;46.80;;;;;;4615321;60;21004;-36
2022/07/23 18:53:20;;;;;;;13.23;11.82;;;29.00;46.90;;;;;;4652028;56;21027;-31
2022/07/23 18:58:21;;;;;;;14.77;12.48;;;29.00;46.90;;;;;;4741444;56;21020;-30
2022/07/23 19:03:22;;;;;;;12.88;11.57;;;29.00;46.90;;;;;;4696944;56;21021;-32
2022/07/23 19:08:22;;;;;;;13.50;12.20;;;29.00;47.00;;;;;;4615085;60;21020;-29
2022/07/23 19:13:23;;;;;;;13.13;11.93;;;29.00;47.00;;;;;;4686094;56;21472;-27
2022/07/23 19:18:24;;;;;;;13.20;12.00;;;29.00;47.00;;;;;;4614249;60;21076;-30
2022/07/23 19:23:25;;;;;;;13.52;12.23;;;29.00;47.10;;;;;;4645768;56;21084;-30
2022/07/23 19:28:26;;;;;;;13.70;12.27;;;29.00;47.20;;;;;;4614826;60;21519;-29
2022/07/23 19:33:27;;;;;;;13.20;11.90;;;29.00;47.20;;;;;;4643160;56;21498;-31
2022/07/23 19:38:28;;;;;;;13.38;11.98;;;29.00;47.20;;;;;;4670006;56;21029;-29
2022/07/23 19:43:29;;;;;;;13.07;11.80;;;29.00;47.30;;;;;;4614849;60;21084;-30
2022/07/23 19:48:30;;;;;;;14.50;13.15;;;29.00;47.30;;;;;;4614798;56;21016;-32
2022/07/23 19:53:31;;;;;;;13.75;12.43;;;29.00;47.30;;;;;;4753107;56;21028;-30
2022/07/23 19:58:34;;;;;;;12.95;11.70;;;29.00;47.40;;;;;;4650476;56;21091;-31
2022/07/23 20:03:35;;;;;;;13.82;12.50;;;29.00;47.40;;;;;;4711721;56;21517;-34
2022/07/23 20:08:36;;;;;;;13.70;12.30;;;29.00;47.40;;;;;;4615020;60;21016;-30
2022/07/23 20:13:37;;;;;;;13.05;11.73;;;29.00;47.40;;;;;;4688672;56;21080;-30
2022/07/23 20:18:38;;;;;;;13.98;12.57;;;29.00;47.40;;;;;;4651263;56;21048;-30
2022/07/23 20:23:38;;;;;;;13.52;12.23;;;29.00;47.50;;;;;;4772617;56;21088;-29
2022/07/23 20:28:42;;;;;;;13.52;12.23;;;29.00;47.50;;;;;;4687252;56;21080;-30
2022/07/23 20:33:43;;;;;;;12.85;11.65;;;29.00;47.50;;;;;;4858060;56;21511;-35
2022/07/23 20:38:44;;;;;;;13.18;11.98;;;29.00;47.60;;;;;;4661934;56;21073;-32
2022/07/23 20:43:45;;;;;;;13.38;11.90;;;29.00;47.50;;;;;;4674238;56;21051;-30
2022/07/23 20:48:46;;;;;;;13.20;12.00;;;29.00;47.50;;;;;;4735823;56;21503;-33
2022/07/23 20:53:47;;;;;;;13.68;12.32;;;29.00;47.60;;;;;;4615089;60;21530;-36
2022/07/23 20:58:48;;;;;;;13.15;11.93;;;29.00;47.60;;;;;;4656140;56;21033;-29
2022/07/23 21:03:49;;;;;;;13.48;12.18;;;29.00;47.60;;;;;;4615425;60;21091;-32
2022/07/23 21:08:49;;;;;;;13.23;12.02;;;29.00;47.60;;;;;;4615415;60;21024;-32
2022/07/23 21:13:50;;;;;;;13.52;12.13;;;29.00;47.60;;;;;;4698443;56;21036;-30
2022/07/23 21:18:51;;;;;;;12.60;11.45;;;29.00;48.30;;;;;;4614426;56;21587;-34
2022/07/23 21:23:52;;;;;;;12.90;11.68;;;29.00;47.70;;;;;;4615405;60;21079;-33
2022/07/23 21:28:53;;;;;;;13.80;12.50;;;29.00;47.70;;;;;;4615347;60;21498;-30
2022/07/23 21:33:54;;;;;;;13.50;12.30;;;29.00;47.80;;;;;;4632483;56;21090;-33
2022/07/23 21:38:55;;;;;;;13.43;12.13;;;29.00;47.80;;;;;;4808118;56;21118;-32
2022/07/23 21:43:56;;;;;;;12.95;11.82;;;29.00;47.80;;;;;;4615349;60;21024;-30
2022/07/23 21:48:57;;;;;;;12.73;11.63;;;29.00;47.80;;;;;;4615361;60;21489;-30
2022/07/23 21:53:58;;;;;;;13.73;12.37;;;29.00;47.90;;;;;;4732594;56;21028;-30
2022/07/23 21:58:59;;;;;;;13.65;12.40;;;29.00;47.90;;;;;;4712305;56;21519;-29
2022/07/23 22:04:00;;;;;;;12.57;11.48;;;29.00;48.00;;;;;;4668686;56;21088;-30
2022/07/23 22:09:01;;;;;;;13.73;12.43;;;29.00;48.00;;;;;;4666053;56;21077;-36
2022/07/23 22:14:01;;;;;;;13.00;11.80;;;29.00;48.00;;;;;;4705023;56;21076;-29
2022/07/23 22:19:02;;;;;;;13.55;12.25;;;29.00;48.10;;;;;;4828515;56;21093;-30
2022/07/23 22:24:03;;;;;;;12.85;11.65;;;29.00;48.00;;;;;;4648736;56;21520;-34
2022/07/23 22:29:04;;;;;;;13.90;12.48;;;29.00;48.10;;;;;;4647398;56;21016;-29
2022/07/23 22:34:05;;;;;;;12.85;11.70;;;29.00;48.10;;;;;;4890463;56;21036;-31
2022/07/23 22:39:06;;;;;;;13.18;11.90;;;29.00;48.10;;;;;;4693221;56;21039;-30
2022/07/23 22:44:07;;;;;;;12.30;11.20;;;29.00;48.10;;;;;;4688488;56;21493;-31
2022/07/23 22:49:08;;;;;;;12.40;11.30;;;29.00;48.20;;;;;;4712586;56;21020;-32
2022/07/23 22:54:09;;;;;;;12.90;11.60;;;29.00;48.20;;;;;;4614977;60;21072;-29
2022/07/23 22:59:11;;;;;;;13.52;12.23;;;29.00;48.20;;;;;;4867734;56;21554;-30
2022/07/23 23:04:12;;;;;;;12.68;11.48;;;29.00;48.20;;;;;;4925860;56;21499;-35
2022/07/23 23:09:13;;;;;;;12.48;11.38;;;29.00;48.40;;;;;;4709730;56;20997;-31
2022/07/23 23:14:14;;;;;;;13.00;11.80;;;29.00;48.30;;;;;;4632157;56;21024;-33
2022/07/23 23:19:15;;;;;;;12.57;11.38;;;29.00;48.30;;;;;;4644976;56;21165;-29
2022/07/23 23:24:16;;;;;;;12.50;11.27;;;29.00;48.40;;;;;;4996519;56;21078;-33
2022/07/23 23:29:16;;;;;;;12.40;11.30;;;29.00;49.10;;;;;;5073517;56;21005;-30
2022/07/23 23:34:17;;;;;;;12.88;11.68;;;29.00;48.40;;;;;;4618756;56;21076;-29
2022/07/23 23:39:18;;;;;;;12.15;11.05;;;29.00;48.50;;;;;;4780190;56;21490;-29
2022/07/23 23:44:21;;;;;;;12.45;11.30;;;29.00;48.60;;;;;;4780577;56;21069;-29
2022/07/23 23:49:22;;;;;;;12.20;11.12;;;29.00;48.50;;;;;;4692083;56;21515;-30
2022/07/23 23:54:22;;;;;;;12.40;11.20;;;29.00;48.70;;;;;;4680438;56;21019;-30
2022/07/23 23:59:23;;;;;;;12.15;11.05;;;29.00;48.60;;;;;;4614739;60;21020;-30
